sensor_id;sensor_type;location;lat;lon;timestamp;P1;durP1;ratioP1;P2;durP2;ratioP2
65047;SDS011;52089;51.362;-2.384;2022-11-27T00:02:42;3.27;;;0.50;;
65047;SDS011;52089;51.362;-2.384;2022-11-27T00:06:25;1.43;;;0.20;;
65047;SDS011;52089;51.362;-2.384;2022-11-27T00:10:08;1.80;;;0.30;;
65047;SDS011;52089;51.362;-2.384;2022-11-27T00:13:50;5.17;;;3.57;;
65047;SDS011;52089;51.362;-2.384;2022-11-27T00:17:32;1.37;;;0.50;;
65047;SDS011;52089;51.362;-2.384;2022-11-27T00:21:15;1.13;;;0.33;;
65047;SDS011;52089;51.362;-2.384;2022-11-27T00:25:02;0.80;;;0.20;;
65047;SDS011;52089;51.362;-2.384;2022-11-27T00:28:44;1.03;;;0.20;;
65047;SDS011;52089;51.362;-2.384;2022-11-27T00:32:26;1.43;;;0.93;;
65047;SDS011;52089;51.362;-2.384;2022-11-27T00:36:08;2.07;;;0.20;;
65047;SDS011;52089;51.362;-2.384;2022-11-27T00:39:51;3.17;;;1.67;;
65047;SDS011;52089;51.362;-2.384;2022-11-27T00:43:33;2.70;;;0.50;;
65047;SDS011;52089;51.362;-2.384;2022-11-27T00:47:24;2.97;;;0.77;;
65047;SDS011;52089;51.362;-2.384;2022-11-27T00:51:07;3.53;;;0.87;;
65047;SDS011;52089;51.362;-2.384;2022-11-27T00:54:50;2.70;;;0.40;;
65047;SDS011;52089;51.362;-2.384;2022-11-27T00:58:32;4.53;;;1.73;;
65047;SDS011;52089;51.362;-2.384;2022-11-27T01:02:14;4.20;;;0.50;;
65047;SDS011;52089;51.362;-2.384;2022-11-27T01:06:00;29.53;;;22.70;;
65047;SDS011;52089;51.362;-2.384;2022-11-27T01:09:43;7.43;;;2.40;;
65047;SDS011;52089;51.362;-2.384;2022-11-27T01:13:26;5.00;;;3.20;;
65047;SDS011;52089;51.362;-2.384;2022-11-27T01:17:10;4.30;;;0.93;;
65047;SDS011;52089;51.362;-2.384;2022-11-27T01:20:51;3.20;;;0.50;;
65047;SDS011;52089;51.362;-2.384;2022-11-27T01:24:33;2.60;;;0.60;;
65047;SDS011;52089;51.362;-2.384;2022-11-27T01:28:15;3.73;;;0.53;;
65047;SDS011;52089;51.362;-2.384;2022-11-27T01:31:57;2.20;;;0.43;;
65047;SDS011;52089;51.362;-2.384;2022-11-27T01:35:39;5.00;;;0.70;;
65047;SDS011;52089;51.362;-2.384;2022-11-27T01:39:21;4.73;;;1.37;;
65047;SDS011;52089;51.362;-2.384;2022-11-27T01:43:04;3.70;;;1.50;;
65047;SDS011;52089;51.362;-2.384;2022-11-27T01:46:54;2.77;;;0.80;;
65047;SDS011;52089;51.362;-2.384;2022-11-27T01:50:41;2.88;;;0.77;;
65047;SDS011;52089;51.362;-2.384;2022-11-27T01:54:25;3.73;;;0.97;;
65047;SDS011;52089;51.362;-2.384;2022-11-27T01:58:18;3.83;;;0.73;;
65047;SDS011;52089;51.362;-2.384;2022-11-27T02:02:03;3.17;;;0.70;;
65047;SDS011;52089;51.362;-2.384;2022-11-27T02:05:45;3.67;;;0.80;;
65047;SDS011;52089;51.362;-2.384;2022-11-27T02:09:27;3.87;;;0.90;;
65047;SDS011;52089;51.362;-2.384;2022-11-27T02:13:29;2.57;;;0.70;;
65047;SDS011;52089;51.362;-2.384;2022-11-27T02:17:17;5.77;;;1.00;;
65047;SDS011;52089;51.362;-2.384;2022-11-27T02:21:05;6.88;;;0.80;;
65047;SDS011;52089;51.362;-2.384;2022-11-27T02:25:12;5.80;;;0.90;;
65047;SDS011;52089;51.362;-2.384;2022-11-27T02:32:59;6.30;;;0.80;;
65047;SDS011;52089;51.362;-2.384;2022-11-27T02:36:47;4.47;;;0.77;;
65047;SDS011;52089;51.362;-2.384;2022-11-27T02:40:34;6.72;;;0.80;;
65047;SDS011;52089;51.362;-2.384;2022-11-27T02:44:24;5.03;;;0.97;;
65047;SDS011;52089;51.362;-2.384;2022-11-27T02:48:12;7.50;;;0.83;;
65047;SDS011;52089;51.362;-2.384;2022-11-27T02:51:57;9.03;;;1.03;;
65047;SDS011;52089;51.362;-2.384;2022-11-27T02:55:40;6.00;;;1.23;;
65047;SDS011;52089;51.362;-2.384;2022-11-27T02:59:23;9.40;;;1.30;;
65047;SDS011;52089;51.362;-2.384;2022-11-27T03:03:08;6.20;;;0.93;;
65047;SDS011;52089;51.362;-2.384;2022-11-27T03:06:54;9.10;;;1.07;;
65047;SDS011;52089;51.362;-2.384;2022-11-27T03:10:44;10.47;;;1.30;;
65047;SDS011;52089;51.362;-2.384;2022-11-27T03:18:34;8.70;;;1.20;;
65047;SDS011;52089;51.362;-2.384;2022-11-27T03:22:23;7.03;;;1.23;;
65047;SDS011;52089;51.362;-2.384;2022-11-27T03:26:06;8.60;;;1.20;;
65047;SDS011;52089;51.362;-2.384;2022-11-27T03:29:50;12.83;;;1.20;;
65047;SDS011;52089;51.362;-2.384;2022-11-27T03:33:34;9.13;;;1.10;;
65047;SDS011;52089;51.362;-2.384;2022-11-27T03:37:16;14.97;;;1.67;;
65047;SDS011;52089;51.362;-2.384;2022-11-27T03:41:03;15.57;;;1.33;;
65047;SDS011;52089;51.362;-2.384;2022-11-27T03:45:04;10.90;;;1.40;;
65047;SDS011;52089;51.362;-2.384;2022-11-27T03:53:24;10.90;;;1.17;;
65047;SDS011;52089;51.362;-2.384;2022-11-27T03:57:37;11.57;;;1.67;;
65047;SDS011;52089;51.362;-2.384;2022-11-27T04:01:27;14.67;;;1.77;;
65047;SDS011;52089;51.362;-2.384;2022-11-27T04:05:11;11.10;;;1.70;;
65047;SDS011;52089;51.362;-2.384;2022-11-27T04:08:54;10.87;;;1.63;;
65047;SDS011;52089;51.362;-2.384;2022-11-27T04:12:35;12.57;;;1.90;;
65047;SDS011;52089;51.362;-2.384;2022-11-27T04:16:17;16.33;;;1.83;;
65047;SDS011;52089;51.362;-2.384;2022-11-27T04:19:59;13.40;;;1.53;;
65047;SDS011;52089;51.362;-2.384;2022-11-27T04:23:42;13.10;;;1.63;;
65047;SDS011;52089;51.362;-2.384;2022-11-27T04:27:24;13.47;;;2.73;;
65047;SDS011;52089;51.362;-2.384;2022-11-27T04:31:05;10.47;;;1.20;;
65047;SDS011;52089;51.362;-2.384;2022-11-27T04:34:47;12.07;;;1.27;;
65047;SDS011;52089;51.362;-2.384;2022-11-27T04:38:29;13.87;;;1.20;;
65047;SDS011;52089;51.362;-2.384;2022-11-27T04:42:11;12.20;;;1.50;;
65047;SDS011;52089;51.362;-2.384;2022-11-27T04:45:52;16.70;;;1.30;;
65047;SDS011;52089;51.362;-2.384;2022-11-27T04:49:34;12.73;;;1.70;;
65047;SDS011;52089;51.362;-2.384;2022-11-27T04:53:16;12.50;;;1.50;;
65047;SDS011;52089;51.362;-2.384;2022-11-27T04:56:58;7.77;;;1.23;;
65047;SDS011;52089;51.362;-2.384;2022-11-27T05:00:40;9.03;;;1.10;;
65047;SDS011;52089;51.362;-2.384;2022-11-27T05:04:24;10.10;;;1.43;;
65047;SDS011;52089;51.362;-2.384;2022-11-27T05:08:09;10.30;;;1.63;;
65047;SDS011;52089;51.362;-2.384;2022-11-27T05:11:50;10.20;;;1.60;;
65047;SDS011;52089;51.362;-2.384;2022-11-27T05:15:32;13.17;;;2.00;;
65047;SDS011;52089;51.362;-2.384;2022-11-27T05:19:17;16.33;;;2.03;;
65047;SDS011;52089;51.362;-2.384;2022-11-27T05:23:00;13.70;;;2.20;;
65047;SDS011;52089;51.362;-2.384;2022-11-27T05:26:42;13.17;;;1.60;;
65047;SDS011;52089;51.362;-2.384;2022-11-27T05:30:24;15.90;;;1.80;;
65047;SDS011;52089;51.362;-2.384;2022-11-27T05:34:06;14.47;;;1.73;;
65047;SDS011;52089;51.362;-2.384;2022-11-27T05:37:48;13.87;;;2.47;;
65047;SDS011;52089;51.362;-2.384;2022-11-27T05:41:30;14.87;;;1.63;;
65047;SDS011;52089;51.362;-2.384;2022-11-27T05:45:11;14.30;;;2.00;;
65047;SDS011;52089;51.362;-2.384;2022-11-27T05:48:53;16.80;;;2.37;;
65047;SDS011;52089;51.362;-2.384;2022-11-27T05:52:35;15.40;;;2.03;;
65047;SDS011;52089;51.362;-2.384;2022-11-27T05:56:17;17.13;;;2.10;;
65047;SDS011;52089;51.362;-2.384;2022-11-27T05:59:59;20.93;;;3.20;;
65047;SDS011;52089;51.362;-2.384;2022-11-27T06:03:41;19.53;;;2.40;;
65047;SDS011;52089;51.362;-2.384;2022-11-27T06:07:23;16.50;;;2.50;;
65047;SDS011;52089;51.362;-2.384;2022-11-27T06:11:06;21.80;;;3.50;;
65047;SDS011;52089;51.362;-2.384;2022-11-27T06:14:48;19.10;;;2.80;;
65047;SDS011;52089;51.362;-2.384;2022-11-27T06:18:30;17.93;;;2.80;;
65047;SDS011;52089;51.362;-2.384;2022-11-27T06:22:12;22.73;;;2.90;;
65047;SDS011;52089;51.362;-2.384;2022-11-27T06:25:54;22.63;;;3.40;;
65047;SDS011;52089;51.362;-2.384;2022-11-27T06:29:36;20.73;;;3.50;;
65047;SDS011;52089;51.362;-2.384;2022-11-27T06:33:18;27.47;;;3.13;;
65047;SDS011;52089;51.362;-2.384;2022-11-27T06:37:00;23.13;;;3.67;;
65047;SDS011;52089;51.362;-2.384;2022-11-27T06:40:41;24.70;;;2.97;;
65047;SDS011;52089;51.362;-2.384;2022-11-27T06:44:24;18.33;;;2.63;;
65047;SDS011;52089;51.362;-2.384;2022-11-27T06:48:06;30.17;;;5.10;;
65047;SDS011;52089;51.362;-2.384;2022-11-27T06:51:48;26.27;;;3.37;;
65047;SDS011;52089;51.362;-2.384;2022-11-27T06:55:30;23.57;;;3.97;;
65047;SDS011;52089;51.362;-2.384;2022-11-27T06:59:12;27.60;;;3.67;;
65047;SDS011;52089;51.362;-2.384;2022-11-27T07:02:57;30.13;;;3.80;;
65047;SDS011;52089;51.362;-2.384;2022-11-27T07:06:39;29.57;;;4.17;;
65047;SDS011;52089;51.362;-2.384;2022-11-27T07:10:22;27.70;;;4.13;;
65047;SDS011;52089;51.362;-2.384;2022-11-27T07:14:04;31.60;;;4.20;;
65047;SDS011;52089;51.362;-2.384;2022-11-27T07:17:46;27.70;;;3.93;;
65047;SDS011;52089;51.362;-2.384;2022-11-27T07:21:28;29.07;;;3.43;;
65047;SDS011;52089;51.362;-2.384;2022-11-27T07:25:10;26.63;;;3.50;;
65047;SDS011;52089;51.362;-2.384;2022-11-27T07:28:52;20.63;;;3.80;;
65047;SDS011;52089;51.362;-2.384;2022-11-27T07:32:34;31.20;;;3.80;;
65047;SDS011;52089;51.362;-2.384;2022-11-27T07:36:18;22.77;;;3.20;;
65047;SDS011;52089;51.362;-2.384;2022-11-27T07:40:04;30.07;;;3.93;;
65047;SDS011;52089;51.362;-2.384;2022-11-27T07:43:47;25.37;;;3.27;;
65047;SDS011;52089;51.362;-2.384;2022-11-27T07:47:29;28.67;;;3.30;;
65047;SDS011;52089;51.362;-2.384;2022-11-27T07:51:12;24.77;;;3.57;;
65047;SDS011;52089;51.362;-2.384;2022-11-27T07:54:55;21.87;;;3.63;;
65047;SDS011;52089;51.362;-2.384;2022-11-27T07:58:37;32.07;;;3.70;;
65047;SDS011;52089;51.362;-2.384;2022-11-27T08:02:19;29.77;;;3.47;;
65047;SDS011;52089;51.362;-2.384;2022-11-27T08:06:00;23.67;;;3.17;;
65047;SDS011;52089;51.362;-2.384;2022-11-27T08:09:42;24.33;;;3.40;;
65047;SDS011;52089;51.362;-2.384;2022-11-27T08:13:24;22.80;;;3.10;;
65047;SDS011;52089;51.362;-2.384;2022-11-27T08:17:06;27.97;;;3.10;;
65047;SDS011;52089;51.362;-2.384;2022-11-27T08:20:48;25.47;;;3.40;;
65047;SDS011;52089;51.362;-2.384;2022-11-27T08:24:30;36.23;;;4.57;;
65047;SDS011;52089;51.362;-2.384;2022-11-27T08:28:11;22.13;;;3.03;;
65047;SDS011;52089;51.362;-2.384;2022-11-27T08:31:53;25.80;;;3.57;;
65047;SDS011;52089;51.362;-2.384;2022-11-27T08:35:35;25.27;;;3.97;;
65047;SDS011;52089;51.362;-2.384;2022-11-27T08:39:17;28.87;;;3.60;;
65047;SDS011;52089;51.362;-2.384;2022-11-27T08:42:59;35.53;;;4.07;;
65047;SDS011;52089;51.362;-2.384;2022-11-27T08:46:41;25.77;;;3.63;;
65047;SDS011;52089;51.362;-2.384;2022-11-27T08:50:24;23.60;;;3.80;;
65047;SDS011;52089;51.362;-2.384;2022-11-27T08:54:05;30.17;;;3.90;;
65047;SDS011;52089;51.362;-2.384;2022-11-27T08:57:47;27.73;;;3.40;;
65047;SDS011;52089;51.362;-2.384;2022-11-27T09:01:30;27.70;;;4.20;;
65047;SDS011;52089;51.362;-2.384;2022-11-27T09:05:12;31.67;;;3.87;;
65047;SDS011;52089;51.362;-2.384;2022-11-27T09:08:55;30.73;;;4.17;;
65047;SDS011;52089;51.362;-2.384;2022-11-27T09:12:40;26.03;;;3.77;;
65047;SDS011;52089;51.362;-2.384;2022-11-27T09:16:24;33.50;;;4.00;;
65047;SDS011;52089;51.362;-2.384;2022-11-27T09:20:08;31.47;;;5.27;;
65047;SDS011;52089;51.362;-2.384;2022-11-27T09:23:51;28.13;;;3.93;;
65047;SDS011;52089;51.362;-2.384;2022-11-27T09:27:35;36.33;;;3.93;;
65047;SDS011;52089;51.362;-2.384;2022-11-27T09:31:17;34.97;;;4.13;;
65047;SDS011;52089;51.362;-2.384;2022-11-27T09:34:59;38.00;;;9.67;;
65047;SDS011;52089;51.362;-2.384;2022-11-27T09:38:41;36.20;;;5.47;;
65047;SDS011;52089;51.362;-2.384;2022-11-27T09:42:34;35.53;;;4.77;;
65047;SDS011;52089;51.362;-2.384;2022-11-27T09:46:25;34.43;;;4.63;;
65047;SDS011;52089;51.362;-2.384;2022-11-27T09:50:13;24.50;;;3.60;;
65047;SDS011;52089;51.362;-2.384;2022-11-27T09:53:58;38.70;;;3.77;;
65047;SDS011;52089;51.362;-2.384;2022-11-27T09:57:55;37.37;;;4.43;;
65047;SDS011;52089;51.362;-2.384;2022-11-27T10:01:42;32.27;;;3.60;;
65047;SDS011;52089;51.362;-2.384;2022-11-27T10:17:21;30.63;;;4.30;;
65047;SDS011;52089;51.362;-2.384;2022-11-27T10:25:15;35.10;;;4.60;;
65047;SDS011;52089;51.362;-2.384;2022-11-27T10:32:59;33.72;;;4.72;;
65047;SDS011;52089;51.362;-2.384;2022-11-27T10:36:44;40.17;;;4.90;;
65047;SDS011;52089;51.362;-2.384;2022-11-27T10:44:51;25.97;;;4.13;;
65047;SDS011;52089;51.362;-2.384;2022-11-27T10:48:39;35.00;;;4.43;;
65047;SDS011;52089;51.362;-2.384;2022-11-27T10:52:21;31.63;;;4.97;;
65047;SDS011;52089;51.362;-2.384;2022-11-27T11:00:11;31.00;;;4.63;;
65047;SDS011;52089;51.362;-2.384;2022-11-27T11:04:04;36.23;;;4.97;;
65047;SDS011;52089;51.362;-2.384;2022-11-27T11:19:55;38.57;;;4.73;;
65047;SDS011;52089;51.362;-2.384;2022-11-27T11:23:38;39.70;;;5.00;;
65047;SDS011;52089;51.362;-2.384;2022-11-27T11:27:27;38.07;;;5.40;;
65047;SDS011;52089;51.362;-2.384;2022-11-27T11:31:12;37.53;;;5.50;;
65047;SDS011;52089;51.362;-2.384;2022-11-27T11:34:59;40.80;;;5.10;;
65047;SDS011;52089;51.362;-2.384;2022-11-27T11:38:49;34.80;;;5.27;;
65047;SDS011;52089;51.362;-2.384;2022-11-27T11:42:33;42.03;;;6.23;;
65047;SDS011;52089;51.362;-2.384;2022-11-27T11:46:17;37.57;;;6.17;;
65047;SDS011;52089;51.362;-2.384;2022-11-27T11:50:03;36.93;;;5.07;;
65047;SDS011;52089;51.362;-2.384;2022-11-27T11:53:48;35.23;;;5.17;;
65047;SDS011;52089;51.362;-2.384;2022-11-27T12:14:01;34.00;;;4.57;;
65047;SDS011;52089;51.362;-2.384;2022-11-27T12:18:04;35.80;;;5.27;;
65047;SDS011;52089;51.362;-2.384;2022-11-27T12:22:01;27.07;;;4.13;;
65047;SDS011;52089;51.362;-2.384;2022-11-27T12:29:47;28.63;;;4.57;;
65047;SDS011;52089;51.362;-2.384;2022-11-27T12:41:21;31.33;;;4.32;;
65047;SDS011;52089;51.362;-2.384;2022-11-27T12:45:10;37.80;;;5.73;;
65047;SDS011;52089;51.362;-2.384;2022-11-27T12:49:04;37.47;;;5.27;;
65047;SDS011;52089;51.362;-2.384;2022-11-27T12:57:07;37.70;;;6.20;;
65047;SDS011;52089;51.362;-2.384;2022-11-27T13:00:58;42.75;;;5.88;;
65047;SDS011;52089;51.362;-2.384;2022-11-27T13:04:45;33.43;;;5.77;;
65047;SDS011;52089;51.362;-2.384;2022-11-27T13:16:30;31.90;;;5.27;;
65047;SDS011;52089;51.362;-2.384;2022-11-27T13:20:23;32.47;;;4.63;;
65047;SDS011;52089;51.362;-2.384;2022-11-27T13:24:12;28.70;;;5.20;;
65047;SDS011;52089;51.362;-2.384;2022-11-27T13:27:54;30.27;;;4.67;;
65047;SDS011;52089;51.362;-2.384;2022-11-27T13:31:38;31.67;;;5.27;;
65047;SDS011;52089;51.362;-2.384;2022-11-27T13:35:29;35.93;;;5.13;;
65047;SDS011;52089;51.362;-2.384;2022-11-27T13:39:21;36.33;;;6.03;;
65047;SDS011;52089;51.362;-2.384;2022-11-27T13:43:06;38.70;;;4.90;;
65047;SDS011;52089;51.362;-2.384;2022-11-27T13:47:20;33.20;;;5.23;;
65047;SDS011;52089;51.362;-2.384;2022-11-27T13:51:04;36.07;;;5.63;;
65047;SDS011;52089;51.362;-2.384;2022-11-27T13:54:52;32.67;;;5.37;;
65047;SDS011;52089;51.362;-2.384;2022-11-27T13:58:40;36.35;;;7.57;;
65047;SDS011;52089;51.362;-2.384;2022-11-27T14:02:23;41.20;;;8.03;;
65047;SDS011;52089;51.362;-2.384;2022-11-27T14:10:12;39.47;;;6.07;;
65047;SDS011;52089;51.362;-2.384;2022-11-27T14:13:57;40.33;;;5.70;;
65047;SDS011;52089;51.362;-2.384;2022-11-27T14:17:42;31.23;;;4.67;;
65047;SDS011;52089;51.362;-2.384;2022-11-27T14:21:33;31.93;;;5.40;;
65047;SDS011;52089;51.362;-2.384;2022-11-27T14:29:09;25.90;;;4.13;;
65047;SDS011;52089;51.362;-2.384;2022-11-27T14:32:52;30.87;;;5.67;;
65047;SDS011;52089;51.362;-2.384;2022-11-27T14:36:34;36.90;;;5.80;;
65047;SDS011;52089;51.362;-2.384;2022-11-27T14:40:26;36.07;;;8.00;;
65047;SDS011;52089;51.362;-2.384;2022-11-27T14:44:13;35.20;;;5.60;;
65047;SDS011;52089;51.362;-2.384;2022-11-27T14:47:55;29.97;;;5.43;;
65047;SDS011;52089;51.362;-2.384;2022-11-27T14:51:37;30.10;;;4.53;;
65047;SDS011;52089;51.362;-2.384;2022-11-27T14:55:20;27.40;;;4.43;;
65047;SDS011;52089;51.362;-2.384;2022-11-27T14:59:03;39.27;;;5.03;;
65047;SDS011;52089;51.362;-2.384;2022-11-27T15:02:47;33.17;;;5.37;;
65047;SDS011;52089;51.362;-2.384;2022-11-27T15:10:21;30.43;;;5.43;;
65047;SDS011;52089;51.362;-2.384;2022-11-27T15:14:12;31.47;;;5.40;;
65047;SDS011;52089;51.362;-2.384;2022-11-27T15:17:58;25.53;;;5.67;;
65047;SDS011;52089;51.362;-2.384;2022-11-27T15:21:42;35.37;;;6.43;;
65047;SDS011;52089;51.362;-2.384;2022-11-27T15:25:37;26.53;;;5.20;;
65047;SDS011;52089;51.362;-2.384;2022-11-27T15:29:24;31.90;;;5.00;;
65047;SDS011;52089;51.362;-2.384;2022-11-27T15:33:30;32.80;;;5.77;;
65047;SDS011;52089;51.362;-2.384;2022-11-27T15:37:23;35.83;;;6.23;;
65047;SDS011;52089;51.362;-2.384;2022-11-27T15:41:27;32.57;;;6.97;;
65047;SDS011;52089;51.362;-2.384;2022-11-27T15:45:12;44.00;;;8.65;;
65047;SDS011;52089;51.362;-2.384;2022-11-27T15:48:54;33.17;;;6.67;;
65047;SDS011;52089;51.362;-2.384;2022-11-27T15:52:36;43.50;;;7.20;;
65047;SDS011;52089;51.362;-2.384;2022-11-27T15:56:18;38.60;;;7.60;;
65047;SDS011;52089;51.362;-2.384;2022-11-27T16:00:00;37.20;;;7.73;;
65047;SDS011;52089;51.362;-2.384;2022-11-27T16:03:44;42.07;;;9.60;;
65047;SDS011;52089;51.362;-2.384;2022-11-27T16:07:25;43.87;;;7.77;;
65047;SDS011;52089;51.362;-2.384;2022-11-27T16:11:08;46.20;;;8.23;;
65047;SDS011;52089;51.362;-2.384;2022-11-27T16:14:54;38.13;;;7.17;;
65047;SDS011;52089;51.362;-2.384;2022-11-27T16:18:36;43.50;;;8.47;;
65047;SDS011;52089;51.362;-2.384;2022-11-27T16:22:18;32.20;;;5.53;;
65047;SDS011;52089;51.362;-2.384;2022-11-27T16:26:00;28.63;;;5.87;;
65047;SDS011;52089;51.362;-2.384;2022-11-27T16:29:42;36.20;;;6.10;;
65047;SDS011;52089;51.362;-2.384;2022-11-27T16:33:25;37.20;;;7.00;;
65047;SDS011;52089;51.362;-2.384;2022-11-27T16:37:07;30.23;;;6.87;;
65047;SDS011;52089;51.362;-2.384;2022-11-27T16:40:57;35.70;;;6.23;;
65047;SDS011;52089;51.362;-2.384;2022-11-27T16:44:41;31.83;;;5.40;;
65047;SDS011;52089;51.362;-2.384;2022-11-27T16:48:24;31.60;;;5.50;;
65047;SDS011;52089;51.362;-2.384;2022-11-27T16:52:06;35.40;;;9.37;;
65047;SDS011;52089;51.362;-2.384;2022-11-27T16:55:50;42.30;;;8.77;;
65047;SDS011;52089;51.362;-2.384;2022-11-27T16:59:32;35.03;;;6.70;;
65047;SDS011;52089;51.362;-2.384;2022-11-27T17:03:17;30.40;;;5.77;;
65047;SDS011;52089;51.362;-2.384;2022-11-27T17:06:59;42.17;;;9.77;;
65047;SDS011;52089;51.362;-2.384;2022-11-27T17:10:52;36.93;;;5.77;;
65047;SDS011;52089;51.362;-2.384;2022-11-27T17:14:33;30.03;;;6.03;;
65047;SDS011;52089;51.362;-2.384;2022-11-27T17:18:17;49.33;;;7.63;;
65047;SDS011;52089;51.362;-2.384;2022-11-27T17:22:01;45.03;;;7.03;;
65047;SDS011;52089;51.362;-2.384;2022-11-27T17:25:43;31.73;;;7.10;;
65047;SDS011;52089;51.362;-2.384;2022-11-27T17:29:25;41.07;;;7.47;;
65047;SDS011;52089;51.362;-2.384;2022-11-27T17:33:07;40.23;;;8.20;;
65047;SDS011;52089;51.362;-2.384;2022-11-27T17:36:48;39.97;;;8.37;;
65047;SDS011;52089;51.362;-2.384;2022-11-27T17:40:33;41.30;;;7.37;;
65047;SDS011;52089;51.362;-2.384;2022-11-27T17:44:15;35.87;;;7.23;;
65047;SDS011;52089;51.362;-2.384;2022-11-27T17:47:57;35.63;;;6.93;;
65047;SDS011;52089;51.362;-2.384;2022-11-27T17:51:40;36.13;;;7.17;;
65047;SDS011;52089;51.362;-2.384;2022-11-27T17:55:22;39.70;;;6.20;;
65047;SDS011;52089;51.362;-2.384;2022-11-27T17:59:03;35.97;;;6.57;;
65047;SDS011;52089;51.362;-2.384;2022-11-27T18:02:45;42.07;;;7.17;;
65047;SDS011;52089;51.362;-2.384;2022-11-27T18:06:27;33.10;;;6.73;;
65047;SDS011;52089;51.362;-2.384;2022-11-27T18:10:09;39.07;;;6.70;;
65047;SDS011;52089;51.362;-2.384;2022-11-27T18:13:51;34.97;;;7.20;;
65047;SDS011;52089;51.362;-2.384;2022-11-27T18:17:34;38.10;;;9.90;;
65047;SDS011;52089;51.362;-2.384;2022-11-27T18:21:17;35.57;;;6.73;;
65047;SDS011;52089;51.362;-2.384;2022-11-27T18:25:00;33.23;;;5.97;;
65047;SDS011;52089;51.362;-2.384;2022-11-27T18:28:42;30.73;;;6.00;;
65047;SDS011;52089;51.362;-2.384;2022-11-27T18:32:24;44.80;;;6.33;;
65047;SDS011;52089;51.362;-2.384;2022-11-27T18:36:07;38.00;;;7.30;;
65047;SDS011;52089;51.362;-2.384;2022-11-27T18:39:49;35.10;;;7.57;;
65047;SDS011;52089;51.362;-2.384;2022-11-27T18:43:31;36.40;;;7.07;;
65047;SDS011;52089;51.362;-2.384;2022-11-27T18:47:14;37.00;;;6.53;;
65047;SDS011;52089;51.362;-2.384;2022-11-27T18:51:18;38.40;;;7.33;;
65047;SDS011;52089;51.362;-2.384;2022-11-27T18:55:02;38.80;;;7.10;;
65047;SDS011;52089;51.362;-2.384;2022-11-27T18:58:46;38.53;;;6.27;;
65047;SDS011;52089;51.362;-2.384;2022-11-27T19:02:29;36.03;;;6.37;;
65047;SDS011;52089;51.362;-2.384;2022-11-27T19:06:11;34.43;;;6.90;;
65047;SDS011;52089;51.362;-2.384;2022-11-27T19:09:54;44.60;;;7.30;;
65047;SDS011;52089;51.362;-2.384;2022-11-27T19:13:37;38.23;;;6.80;;
65047;SDS011;52089;51.362;-2.384;2022-11-27T19:17:19;33.87;;;7.50;;
65047;SDS011;52089;51.362;-2.384;2022-11-27T19:21:14;34.67;;;7.20;;
65047;SDS011;52089;51.362;-2.384;2022-11-27T19:25:01;32.60;;;6.60;;
65047;SDS011;52089;51.362;-2.384;2022-11-27T19:28:43;35.30;;;7.77;;
65047;SDS011;52089;51.362;-2.384;2022-11-27T19:32:28;42.27;;;7.80;;
65047;SDS011;52089;51.362;-2.384;2022-11-27T19:36:10;44.60;;;10.27;;
65047;SDS011;52089;51.362;-2.384;2022-11-27T19:39:53;54.30;;;11.00;;
65047;SDS011;52089;51.362;-2.384;2022-11-27T19:43:35;41.50;;;8.83;;
65047;SDS011;52089;51.362;-2.384;2022-11-27T19:47:17;37.57;;;7.17;;
65047;SDS011;52089;51.362;-2.384;2022-11-27T19:51:00;35.47;;;8.00;;
65047;SDS011;52089;51.362;-2.384;2022-11-27T19:54:42;36.50;;;7.43;;
65047;SDS011;52089;51.362;-2.384;2022-11-27T19:58:25;35.37;;;6.73;;
65047;SDS011;52089;51.362;-2.384;2022-11-27T20:02:11;35.57;;;6.50;;
65047;SDS011;52089;51.362;-2.384;2022-11-27T20:06:08;32.53;;;6.47;;
65047;SDS011;52089;51.362;-2.384;2022-11-27T20:09:59;27.77;;;6.50;;
65047;SDS011;52089;51.362;-2.384;2022-11-27T20:13:42;34.40;;;6.07;;
65047;SDS011;52089;51.362;-2.384;2022-11-27T20:17:25;31.60;;;6.53;;
65047;SDS011;52089;51.362;-2.384;2022-11-27T20:21:11;37.17;;;7.10;;
65047;SDS011;52089;51.362;-2.384;2022-11-27T20:24:57;38.60;;;6.90;;
65047;SDS011;52089;51.362;-2.384;2022-11-27T20:28:59;39.90;;;8.47;;
65047;SDS011;52089;51.362;-2.384;2022-11-27T20:32:41;35.00;;;7.70;;
65047;SDS011;52089;51.362;-2.384;2022-11-27T20:36:23;32.63;;;5.40;;
65047;SDS011;52089;51.362;-2.384;2022-11-27T20:40:05;38.07;;;5.63;;
65047;SDS011;52089;51.362;-2.384;2022-11-27T20:43:48;31.00;;;4.90;;
65047;SDS011;52089;51.362;-2.384;2022-11-27T20:47:34;28.60;;;5.47;;
65047;SDS011;52089;51.362;-2.384;2022-11-27T20:51:17;29.87;;;4.83;;
65047;SDS011;52089;51.362;-2.384;2022-11-27T20:55:00;37.73;;;6.10;;
65047;SDS011;52089;51.362;-2.384;2022-11-27T20:58:43;36.37;;;5.83;;
65047;SDS011;52089;51.362;-2.384;2022-11-27T21:02:25;38.63;;;5.27;;
65047;SDS011;52089;51.362;-2.384;2022-11-27T21:06:07;31.97;;;5.47;;
65047;SDS011;52089;51.362;-2.384;2022-11-27T21:09:49;34.07;;;6.40;;
65047;SDS011;52089;51.362;-2.384;2022-11-27T21:13:31;27.97;;;4.80;;
65047;SDS011;52089;51.362;-2.384;2022-11-27T21:17:12;37.83;;;6.07;;
65047;SDS011;52089;51.362;-2.384;2022-11-27T21:20:54;33.03;;;5.40;;
65047;SDS011;52089;51.362;-2.384;2022-11-27T21:24:36;37.03;;;5.37;;
65047;SDS011;52089;51.362;-2.384;2022-11-27T21:28:18;29.03;;;4.17;;
65047;SDS011;52089;51.362;-2.384;2022-11-27T21:32:00;28.07;;;4.77;;
65047;SDS011;52089;51.362;-2.384;2022-11-27T21:35:42;29.40;;;5.13;;
65047;SDS011;52089;51.362;-2.384;2022-11-27T21:39:23;37.13;;;5.83;;
65047;SDS011;52089;51.362;-2.384;2022-11-27T21:43:05;36.57;;;5.13;;
65047;SDS011;52089;51.362;-2.384;2022-11-27T21:46:48;34.87;;;5.00;;
65047;SDS011;52089;51.362;-2.384;2022-11-27T21:50:30;52.03;;;16.73;;
65047;SDS011;52089;51.362;-2.384;2022-11-27T21:54:12;29.90;;;8.07;;
65047;SDS011;52089;51.362;-2.384;2022-11-27T21:57:55;31.70;;;5.47;;
65047;SDS011;52089;51.362;-2.384;2022-11-27T22:01:37;28.47;;;4.57;;
65047;SDS011;52089;51.362;-2.384;2022-11-27T22:05:19;29.17;;;5.53;;
65047;SDS011;52089;51.362;-2.384;2022-11-27T22:09:01;32.03;;;5.60;;
65047;SDS011;52089;51.362;-2.384;2022-11-27T22:12:44;31.00;;;4.70;;
65047;SDS011;52089;51.362;-2.384;2022-11-27T22:16:27;26.67;;;4.07;;
65047;SDS011;52089;51.362;-2.384;2022-11-27T22:20:11;32.93;;;4.40;;
65047;SDS011;52089;51.362;-2.384;2022-11-27T22:23:53;22.70;;;3.77;;
65047;SDS011;52089;51.362;-2.384;2022-11-27T22:27:36;25.33;;;3.70;;
65047;SDS011;52089;51.362;-2.384;2022-11-27T22:31:19;27.03;;;3.90;;
65047;SDS011;52089;51.362;-2.384;2022-11-27T22:35:03;28.77;;;4.27;;
65047;SDS011;52089;51.362;-2.384;2022-11-27T22:38:45;30.10;;;5.50;;
65047;SDS011;52089;51.362;-2.384;2022-11-27T22:42:28;24.30;;;4.30;;
65047;SDS011;52089;51.362;-2.384;2022-11-27T22:46:11;32.80;;;4.60;;
65047;SDS011;52089;51.362;-2.384;2022-11-27T22:49:55;23.00;;;4.17;;
65047;SDS011;52089;51.362;-2.384;2022-11-27T22:53:37;29.30;;;4.70;;
65047;SDS011;52089;51.362;-2.384;2022-11-27T22:57:19;23.50;;;4.67;;
65047;SDS011;52089;51.362;-2.384;2022-11-27T23:01:01;27.97;;;3.80;;
65047;SDS011;52089;51.362;-2.384;2022-11-27T23:04:44;35.87;;;5.37;;
65047;SDS011;52089;51.362;-2.384;2022-11-27T23:08:26;27.57;;;5.00;;
65047;SDS011;52089;51.362;-2.384;2022-11-27T23:12:08;28.60;;;4.27;;
65047;SDS011;52089;51.362;-2.384;2022-11-27T23:15:50;23.60;;;4.57;;
65047;SDS011;52089;51.362;-2.384;2022-11-27T23:19:31;30.60;;;4.37;;
65047;SDS011;52089;51.362;-2.384;2022-11-27T23:23:13;21.90;;;3.67;;
65047;SDS011;52089;51.362;-2.384;2022-11-27T23:26:55;25.20;;;4.23;;
65047;SDS011;52089;51.362;-2.384;2022-11-27T23:30:37;29.00;;;4.40;;
65047;SDS011;52089;51.362;-2.384;2022-11-27T23:34:19;28.57;;;3.87;;
65047;SDS011;52089;51.362;-2.384;2022-11-27T23:38:00;24.03;;;4.40;;
65047;SDS011;52089;51.362;-2.384;2022-11-27T23:41:42;23.37;;;4.20;;